Poio, Spain
Current Conditions -  °F | °C
As of 3:00 PM on Thursday 30 Oct 2014 (Local Time) from LEVX Reporting Station
Clear Clear  
Wind Chill: 75°   Ceiling: Unl
Heat Index: 75°   Visibility: 6mi
Dew Point: 59°   Wind: 3mph
Humidity: 57%   Direction: 220°SW
Pressure: 30.06"   Gusts: NA
Location:  42.44°N, 8.71°W
Report Text: LEVX 301400Z 22003KT 190V260 CAVOK 24/15 Q1018 NOSIG
Loading
Personal Weather Stations






























Interactive Weather Map
Tropical Storm Tracking
New forecast layout! Learn more

10-Day Weather Forecast

Advertisements
Track Severe Weather on mobile